Time;durP1;ratioP1;P1;durP2;ratioP2;P2;SDS_P1;SDS_P2;PMS_P1;PMS_P2;Temp;Humidity;BMP_temperature;BMP_pressure;BME280_temperature;BME280_humidity;BME280_pressure;Samples;Min_cycle;Max_cycle;Signal;HPM_P1;HPM_P2
2023/05/15 00:01:34;;;;;;;85.10;39.40;;;12.00;99.90;;;;;;5100976;28;20550;-69
2023/05/15 00:04:00;;;;;;;93.45;42.30;;;12.00;99.90;;;;;;5093510;28;20296;-69
2023/05/15 00:06:27;;;;;;;86.78;39.20;;;12.00;99.90;;;;;;5087151;28;20199;-69
2023/05/15 00:08:52;;;;;;;87.72;40.00;;;11.80;99.90;;;;;;5107987;28;20188;-69
2023/05/15 00:11:19;;;;;;;77.55;37.20;;;11.70;99.90;;;;;;5115623;28;20198;-69
2023/05/15 00:13:44;;;;;;;92.60;43.88;;;11.70;99.90;;;;;;5115258;28;20184;-70
2023/05/15 00:16:10;;;;;;;77.05;36.40;;;11.70;99.90;;;;;;5107978;28;20196;-69
2023/05/15 00:18:36;;;;;;;77.10;38.47;;;11.80;99.90;;;;;;5098193;28;20289;-69
2023/05/15 00:21:01;;;;;;;83.60;38.83;;;11.80;99.90;;;;;;5112517;28;20205;-69
2023/05/15 00:23:27;;;;;;;82.80;38.35;;;11.80;99.90;;;;;;5097119;28;20195;-69
2023/05/15 00:25:53;;;;;;;78.50;35.30;;;11.80;99.90;;;;;;5094025;28;20292;-69
2023/05/15 00:28:18;;;;;;;82.35;36.47;;;11.80;99.90;;;;;;5084456;28;20244;-69
2023/05/15 00:30:44;;;;;;;81.55;36.40;;;11.80;99.90;;;;;;5113399;28;20593;-69
2023/05/15 00:33:10;;;;;;;79.65;36.58;;;11.70;99.90;;;;;;5114022;28;20184;-72
2023/05/15 00:35:35;;;;;;;80.88;34.45;;;11.60;99.90;;;;;;5114778;28;20241;-69
2023/05/15 00:38:01;;;;;;;70.68;33.85;;;11.60;99.90;;;;;;5093490;28;20644;-68
2023/05/15 00:40:28;;;;;;;72.57;36.35;;;11.60;99.90;;;;;;5096474;28;20253;-69
2023/05/15 00:42:54;;;;;;;76.57;33.65;;;11.60;99.90;;;;;;5114330;28;20176;-69
2023/05/15 00:45:22;;;;;;;64.93;33.40;;;11.60;99.90;;;;;;5114944;28;20186;-69
2023/05/15 00:47:49;;;;;;;71.30;34.28;;;11.60;99.90;;;;;;5114235;28;20200;-69
2023/05/15 00:50:15;;;;;;;66.13;33.35;;;11.50;99.90;;;;;;5079622;28;20540;-69
2023/05/15 00:52:41;;;;;;;70.05;31.60;;;11.50;99.90;;;;;;5114781;28;20177;-69
2023/05/15 00:55:08;;;;;;;69.07;33.30;;;11.40;99.90;;;;;;5108781;28;20238;-70
2023/05/15 00:57:33;;;;;;;68.65;32.67;;;11.50;99.90;;;;;;5114793;28;21058;-68
2023/05/15 01:00:03;;;;;;;77.50;34.38;;;11.50;99.90;;;;;;5095748;28;20196;-69
2023/05/15 01:02:29;;;;;;;66.90;33.47;;;11.50;99.90;;;;;;5089654;28;20346;-67
2023/05/15 01:04:55;;;;;;;72.07;33.95;;;11.50;99.90;;;;;;5114141;28;20263;-67
2023/05/15 01:07:21;;;;;;;72.82;36.22;;;11.50;99.90;;;;;;5099828;28;20182;-68
2023/05/15 01:09:48;;;;;;;68.53;35.05;;;11.50;99.90;;;;;;5114281;28;20192;-68
2023/05/15 01:12:15;;;;;;;72.85;36.45;;;11.50;99.90;;;;;;5091220;28;20179;-67
2023/05/15 01:14:41;;;;;;;71.07;34.85;;;11.60;99.90;;;;;;5113707;28;20175;-68
2023/05/15 01:17:07;;;;;;;65.13;32.13;;;11.60;99.90;;;;;;5105890;28;20271;-68
2023/05/15 01:19:33;;;;;;;68.43;32.30;;;11.60;99.90;;;;;;5113516;28;20227;-68
2023/05/15 01:22:15;;;;;;;66.43;33.42;;;11.60;99.90;;;;;;5105869;28;20187;-68
2023/05/15 01:25:11;;;;;;;68.40;31.42;;;11.60;99.90;;;;;;5111593;28;20176;-68
2023/05/15 01:27:47;;;;;;;62.40;30.42;;;11.60;99.90;;;;;;5100504;28;20660;-68
2023/05/15 01:30:27;;;;;;;65.70;32.92;;;11.60;99.90;;;;;;5104051;28;20179;-68
2023/05/15 01:33:07;;;;;;;62.72;31.45;;;11.60;99.90;;;;;;5112285;28;20184;-68
2023/05/15 01:35:40;;;;;;;68.05;31.80;;;11.60;99.90;;;;;;5113784;28;20171;-68
2023/05/15 01:38:11;;;;;;;64.03;33.13;;;11.60;99.90;;;;;;5102716;28;20181;-68
2023/05/15 01:40:37;;;;;;;72.43;33.45;;;11.60;99.90;;;;;;5112405;28;20212;-68
2023/05/15 01:43:08;;;;;;;60.40;30.65;;;11.60;99.90;;;;;;5114098;28;20283;-68
2023/05/15 01:45:36;;;;;;;55.92;29.55;;;11.50;99.90;;;;;;5077932;28;20613;-68
2023/05/15 01:48:07;;;;;;;59.28;31.98;;;11.50;99.90;;;;;;5105502;28;20372;-68
2023/05/15 01:50:35;;;;;;;64.50;31.35;;;11.50;99.90;;;;;;5113638;28;20168;-68
2023/05/15 01:53:02;;;;;;;63.63;32.05;;;11.50;99.90;;;;;;5095464;28;20175;-68
2023/05/15 01:55:29;;;;;;;65.05;33.30;;;11.40;99.90;;;;;;5095280;28;20268;-68
2023/05/15 01:57:58;;;;;;;63.88;32.33;;;11.40;99.90;;;;;;5113017;28;20270;-68
2023/05/15 02:00:24;;;;;;;66.13;32.20;;;11.30;99.90;;;;;;5104318;28;20207;-68
2023/05/15 02:02:51;;;;;;;71.32;33.58;;;11.30;99.90;;;;;;5095223;28;20225;-69
2023/05/15 02:05:17;;;;;;;72.97;33.85;;;11.30;99.90;;;;;;5113035;28;20535;-69
2023/05/15 02:07:44;;;;;;;71.15;32.40;;;11.30;99.90;;;;;;5113179;28;20278;-67
2023/05/15 02:10:13;;;;;;;80.07;37.33;;;11.20;99.90;;;;;;5112317;28;20204;-68
2023/05/15 02:12:41;;;;;;;91.30;39.50;;;11.30;99.90;;;;;;5092829;28;20195;-68
2023/05/15 02:15:08;;;;;;;84.55;38.10;;;11.30;99.90;;;;;;5111495;28;20531;-68
2023/05/15 02:17:34;;;;;;;93.90;44.10;;;11.40;99.90;;;;;;5102994;28;20251;-68
2023/05/15 02:20:00;;;;;;;95.30;46.88;;;11.40;99.90;;;;;;5112954;28;20275;-68
2023/05/15 02:22:26;;;;;;;111.35;51.63;;;11.30;99.90;;;;;;5098592;28;20332;-68
2023/05/15 02:24:52;;;;;;;114.78;46.70;;;11.40;99.90;;;;;;5109147;28;20180;-68
2023/05/15 02:27:26;;;;;;;115.15;50.40;;;11.50;99.90;;;;;;5109238;28;20176;-69
2023/05/15 02:29:55;;;;;;;121.13;52.05;;;11.60;99.90;;;;;;5108984;28;20187;-68
2023/05/15 02:32:28;;;;;;;120.30;50.20;;;11.60;99.90;;;;;;5094512;28;20581;-69
2023/05/15 02:35:06;;;;;;;111.65;49.72;;;11.60;99.90;;;;;;5112635;28;20179;-69
2023/05/15 02:37:36;;;;;;;119.93;53.60;;;11.60;99.90;;;;;;5112463;28;20176;-69
2023/05/15 02:40:05;;;;;;;122.32;53.13;;;11.70;99.90;;;;;;5112641;28;20296;-69
2023/05/15 02:42:32;;;;;;;130.10;52.90;;;11.80;99.90;;;;;;5110838;28;20180;-69
2023/05/15 02:44:59;;;;;;;134.48;56.65;;;11.70;99.90;;;;;;5101031;28;20188;-69
2023/05/15 02:47:26;;;;;;;124.22;54.65;;;11.70;99.90;;;;;;5101435;28;20188;-69
2023/05/15 02:49:52;;;;;;;126.90;53.17;;;11.80;99.90;;;;;;5112523;28;20271;-68
2023/05/15 02:52:18;;;;;;;127.40;54.45;;;11.70;99.90;;;;;;5113946;28;20716;-70
2023/05/15 02:54:43;;;;;;;125.00;57.60;;;11.70;99.90;;;;;;5109569;28;20180;-69
2023/05/15 02:57:09;;;;;;;114.03;51.55;;;11.70;99.90;;;;;;5116530;28;20180;-69
2023/05/15 02:59:35;;;;;;;106.07;50.33;;;11.70;99.90;;;;;;5098454;28;20219;-69
2023/05/15 03:02:02;;;;;;;102.15;45.40;;;11.80;99.90;;;;;;5116135;28;20179;-70
2023/05/15 03:04:28;;;;;;;101.25;44.75;;;11.80;99.90;;;;;;5090058;28;20186;-69
2023/05/15 03:06:53;;;;;;;101.45;42.72;;;11.70;99.90;;;;;;5103889;28;20266;-70
2023/05/15 03:09:19;;;;;;;90.45;41.25;;;11.70;99.90;;;;;;5116426;28;20184;-69
2023/05/15 03:11:45;;;;;;;93.40;38.63;;;11.70;99.90;;;;;;5110785;28;20224;-67
2023/05/15 03:14:11;;;;;;;79.53;35.25;;;11.80;99.90;;;;;;5095225;28;20184;-67
2023/05/15 03:16:37;;;;;;;89.07;37.88;;;11.80;99.90;;;;;;5114203;28;20184;-68
2023/05/15 03:19:04;;;;;;;88.13;39.15;;;11.90;99.90;;;;;;5116397;28;20231;-68
2023/05/15 03:21:29;;;;;;;92.38;36.63;;;11.90;99.90;;;;;;5096152;28;20219;-68
2023/05/15 03:23:55;;;;;;;98.32;42.25;;;11.80;99.90;;;;;;5103015;28;20273;-68
2023/05/15 03:26:21;;;;;;;104.13;47.75;;;11.80;99.90;;;;;;5104176;28;20310;-69
2023/05/15 03:28:46;;;;;;;108.47;46.08;;;11.80;99.90;;;;;;5111146;28;20188;-69
2023/05/15 03:31:13;;;;;;;101.85;45.05;;;11.90;99.90;;;;;;5106276;28;20195;-69
2023/05/15 03:33:39;;;;;;;108.90;48.03;;;12.00;99.90;;;;;;5113651;28;20183;-69
2023/05/15 03:36:05;;;;;;;109.47;47.75;;;11.80;99.90;;;;;;5103850;28;20277;-67
2023/05/15 03:38:31;;;;;;;107.35;47.22;;;12.00;99.90;;;;;;5111139;28;20184;-68
2023/05/15 03:40:57;;;;;;;103.90;44.50;;;11.90;99.90;;;;;;5094200;28;20215;-67
2023/05/15 03:43:23;;;;;;;110.40;49.53;;;11.80;99.90;;;;;;5101422;28;20264;-68
2023/05/15 03:45:49;;;;;;;119.72;47.25;;;11.70;99.90;;;;;;5114458;28;20200;-68
2023/05/15 03:48:14;;;;;;;128.13;51.83;;;11.70;99.90;;;;;;5115996;28;20236;-72
2023/05/15 03:50:40;;;;;;;120.13;50.47;;;11.80;99.90;;;;;;5109750;28;20178;-69
2023/05/15 03:53:06;;;;;;;121.93;52.40;;;11.90;99.90;;;;;;5115422;28;20177;-68
2023/05/15 03:55:32;;;;;;;110.38;47.35;;;11.90;99.90;;;;;;5088150;28;20192;-68
2023/05/15 03:57:57;;;;;;;102.30;45.83;;;11.80;99.90;;;;;;5116235;28;20164;-69
2023/05/15 04:00:23;;;;;;;121.13;48.50;;;11.80;99.90;;;;;;5115142;28;20208;-69
2023/05/15 04:02:49;;;;;;;124.50;50.05;;;11.70;99.90;;;;;;5083096;28;20541;-68
2023/05/15 04:05:15;;;;;;;147.82;58.92;;;11.80;99.90;;;;;;5114274;28;20243;-68
2023/05/15 04:07:41;;;;;;;165.65;63.55;;;11.80;99.90;;;;;;5115532;28;20548;-69
2023/05/15 04:10:07;;;;;;;193.40;70.53;;;11.80;99.90;;;;;;5097321;28;20186;-71
2023/05/15 04:12:34;;;;;;;186.90;75.65;;;11.80;99.90;;;;;;5104990;28;20188;-72
2023/05/15 04:15:20;;;;;;;200.93;78.13;;;11.90;99.90;;;;;;5111772;28;20238;-70
2023/05/15 04:17:48;;;;;;;186.38;75.22;;;11.90;99.90;;;;;;5111854;28;20176;-72
2023/05/15 04:20:15;;;;;;;200.63;79.07;;;11.80;99.90;;;;;;5111763;28;20226;-72
2023/05/15 04:22:41;;;;;;;200.30;76.22;;;11.90;99.90;;;;;;5096548;28;20229;-72
2023/05/15 04:25:08;;;;;;;190.57;77.78;;;12.00;99.90;;;;;;5114936;28;20267;-73
2023/05/15 04:27:35;;;;;;;173.02;66.47;;;12.10;99.90;;;;;;5115108;28;20679;-72
2023/05/15 04:30:00;;;;;;;167.30;61.85;;;11.90;99.90;;;;;;5095779;28;20281;-70
2023/05/15 04:32:26;;;;;;;152.32;62.83;;;12.00;99.90;;;;;;5095321;28;20212;-77
2023/05/15 04:34:52;;;;;;;147.10;61.30;;;11.90;99.90;;;;;;5107961;28;20212;-74
2023/05/15 04:37:18;;;;;;;138.38;55.05;;;11.80;99.90;;;;;;5114880;28;20187;-76
2023/05/15 04:39:44;;;;;;;132.18;54.95;;;11.80;99.90;;;;;;5114426;28;20216;-75
2023/05/15 04:42:10;;;;;;;139.02;56.15;;;11.90;99.90;;;;;;5114989;28;20172;-75
2023/05/15 04:44:36;;;;;;;128.00;52.38;;;11.90;99.90;;;;;;5108515;28;20180;-77
2023/05/15 04:47:01;;;;;;;114.80;47.65;;;12.00;99.90;;;;;;5103487;28;20192;-74
2023/05/15 04:49:27;;;;;;;131.00;50.53;;;12.00;99.90;;;;;;5090468;28;20208;-75
2023/05/15 04:51:52;;;;;;;113.43;47.05;;;12.10;99.90;;;;;;5062699;28;20245;-75
2023/05/15 04:54:18;;;;;;;103.05;42.83;;;11.90;99.90;;;;;;5114656;28;20527;-74
2023/05/15 04:56:45;;;;;;;103.90;43.65;;;12.00;99.90;;;;;;5096260;28;20176;-73
2023/05/15 04:59:12;;;;;;;97.95;41.85;;;12.10;99.90;;;;;;5095313;28;20180;-72
2023/05/15 05:01:38;;;;;;;96.85;40.67;;;12.10;99.90;;;;;;5096421;28;20240;-73
2023/05/15 05:04:04;;;;;;;97.10;38.13;;;12.20;99.90;;;;;;5113850;28;20271;-72
2023/05/15 05:06:29;;;;;;;92.50;41.55;;;12.20;99.90;;;;;;5114212;28;20183;-72
2023/05/15 05:08:55;;;;;;;103.20;40.53;;;12.20;99.90;;;;;;5113935;28;20220;-72
2023/05/15 05:11:20;;;;;;;98.72;39.03;;;12.30;99.90;;;;;;5096143;28;20187;-72
2023/05/15 05:13:48;;;;;;;94.45;38.45;;;12.10;99.90;;;;;;5114116;28;20207;-72
2023/05/15 05:16:13;;;;;;;79.13;36.63;;;12.20;99.90;;;;;;5114504;28;20257;-72
2023/05/15 05:18:39;;;;;;;86.32;34.45;;;12.00;99.90;;;;;;5109111;28;20227;-72
2023/05/15 05:21:05;;;;;;;92.68;38.67;;;11.90;99.90;;;;;;5113544;28;20211;-71
2023/05/15 05:23:30;;;;;;;105.60;39.78;;;12.10;99.90;;;;;;5113870;28;20176;-72
2023/05/15 05:25:56;;;;;;;91.85;40.45;;;12.00;99.90;;;;;;5113944;28;20168;-76
2023/05/15 05:28:22;;;;;;;111.63;40.05;;;11.90;99.90;;;;;;5113774;28;20192;-74
2023/05/15 05:30:48;;;;;;;94.25;42.17;;;11.70;99.90;;;;;;5094707;28;20188;-74
2023/05/15 05:33:14;;;;;;;118.90;47.42;;;11.80;99.90;;;;;;5113539;28;20180;-74
2023/05/15 05:35:39;;;;;;;115.15;45.03;;;11.80;99.90;;;;;;5095390;28;20219;-74
2023/05/15 05:38:05;;;;;;;103.07;42.40;;;11.80;99.90;;;;;;5095627;28;20275;-76
2023/05/15 05:40:31;;;;;;;114.75;46.92;;;11.90;99.90;;;;;;5111189;28;20203;-75
2023/05/15 05:43:03;;;;;;;112.03;43.97;;;12.00;99.90;;;;;;5081172;28;20182;-74
2023/05/15 05:45:28;;;;;;;116.63;44.17;;;12.00;99.90;;;;;;5089621;28;20184;-75
2023/05/15 05:47:55;;;;;;;116.90;43.70;;;11.90;99.90;;;;;;5075567;28;20201;-76
2023/05/15 05:50:21;;;;;;;120.20;47.72;;;12.00;99.90;;;;;;5091505;28;20199;-74
2023/05/15 05:52:47;;;;;;;114.93;45.33;;;11.80;99.90;;;;;;5095227;28;20209;-74
2023/05/15 05:55:14;;;;;;;111.18;42.30;;;11.60;99.90;;;;;;5106719;28;20177;-76
2023/05/15 05:57:40;;;;;;;107.88;40.15;;;11.60;99.90;;;;;;5113346;28;20188;-74
2023/05/15 06:00:09;;;;;;;102.40;38.05;;;11.60;99.90;;;;;;5080811;28;20608;-74
2023/05/15 06:02:38;;;;;;;97.53;38.28;;;11.70;99.90;;;;;;5113453;28;20645;-76
2023/05/15 06:05:05;;;;;;;100.43;37.40;;;11.70;99.90;;;;;;5112944;28;20184;-77
2023/05/15 06:07:31;;;;;;;103.28;41.08;;;11.70;99.90;;;;;;5107144;28;20175;-76
2023/05/15 06:09:56;;;;;;;101.00;39.88;;;11.80;99.90;;;;;;5099586;28;20176;-75
2023/05/15 06:12:22;;;;;;;103.57;38.83;;;11.90;99.90;;;;;;5088745;28;20674;-75
2023/05/15 06:14:48;;;;;;;108.22;41.63;;;11.90;99.90;;;;;;5092523;28;20232;-76
2023/05/15 06:17:13;;;;;;;104.65;38.70;;;12.00;99.90;;;;;;5068446;28;20176;-75
2023/05/15 06:19:39;;;;;;;106.93;38.28;;;12.00;99.90;;;;;;5091335;28;20311;-75
2023/05/15 06:22:05;;;;;;;95.60;37.80;;;12.10;99.90;;;;;;5089374;28;20199;-75
2023/05/15 06:24:30;;;;;;;91.53;35.70;;;12.30;99.90;;;;;;5106206;28;20229;-76
2023/05/15 06:26:56;;;;;;;102.25;38.67;;;12.40;99.90;;;;;;5104860;28;20221;-76
2023/05/15 06:29:22;;;;;;;95.63;40.03;;;12.40;99.90;;;;;;5113070;28;20188;-75
2023/05/15 06:31:48;;;;;;;96.90;38.35;;;12.60;99.90;;;;;;5076230;28;20620;-76
2023/05/15 06:34:13;;;;;;;93.22;36.10;;;12.80;99.90;;;;;;5097477;28;20188;-77
2023/05/15 06:36:39;;;;;;;92.10;38.67;;;13.10;99.90;;;;;;5068304;28;20180;-76
2023/05/15 06:39:05;;;;;;;91.13;37.17;;;13.20;99.90;;;;;;5112508;28;20195;-76
2023/05/15 06:41:33;;;;;;;88.70;34.58;;;13.30;99.90;;;;;;5094929;28;20663;-74
2023/05/15 06:43:59;;;;;;;88.65;35.03;;;13.60;99.90;;;;;;5080079;28;20177;-74
2023/05/15 06:46:24;;;;;;;80.07;33.40;;;13.70;99.90;;;;;;5077895;28;20186;-74
2023/05/15 06:48:50;;;;;;;80.57;32.45;;;13.90;99.90;;;;;;5085735;28;20198;-75
2023/05/15 06:51:16;;;;;;;73.80;31.65;;;14.00;99.90;;;;;;5108391;28;20530;-74
2023/05/15 06:53:41;;;;;;;71.88;31.67;;;14.10;99.90;;;;;;5094466;28;20677;-76
2023/05/15 06:56:07;;;;;;;76.85;31.17;;;14.10;99.90;;;;;;5105688;28;20271;-74
2023/05/15 06:58:33;;;;;;;68.05;31.40;;;14.10;99.90;;;;;;5112432;28;20693;-77
2023/05/15 07:01:02;;;;;;;71.75;32.55;;;14.30;99.90;;;;;;5089555;28;20208;-74
2023/05/15 07:03:28;;;;;;;70.10;32.60;;;14.30;99.90;;;;;;5093076;28;20184;-76
2023/05/15 07:05:54;;;;;;;64.85;32.22;;;14.30;99.90;;;;;;5094358;28;20237;-74
2023/05/15 07:08:20;;;;;;;68.22;32.40;;;14.30;99.90;;;;;;5098922;28;20184;-75
2023/05/15 07:10:47;;;;;;;65.53;33.58;;;14.00;99.90;;;;;;5111574;28;20191;-76
2023/05/15 07:13:12;;;;;;;68.60;30.92;;;14.10;99.90;;;;;;5112469;28;20227;-76
2023/05/15 07:15:38;;;;;;;64.38;29.30;;;14.00;99.90;;;;;;5094694;28;20203;-75
2023/05/15 07:18:05;;;;;;;66.32;30.00;;;14.10;99.90;;;;;;5094027;28;20600;-75
2023/05/15 07:20:30;;;;;;;60.42;29.60;;;14.10;99.90;;;;;;5091798;28;20549;-76
2023/05/15 07:22:56;;;;;;;61.97;28.65;;;14.20;99.90;;;;;;5112571;28;20245;-75
2023/05/15 07:25:22;;;;;;;58.97;28.67;;;14.20;99.90;;;;;;5112615;28;20172;-75
2023/05/15 07:27:47;;;;;;;55.30;27.95;;;14.30;99.90;;;;;;5112068;28;20699;-74
2023/05/15 07:30:13;;;;;;;56.80;28.52;;;14.30;99.90;;;;;;5094087;28;20227;-75
2023/05/15 07:32:40;;;;;;;57.92;26.45;;;14.20;99.90;;;;;;5094348;28;20215;-75
2023/05/15 07:35:05;;;;;;;59.20;27.63;;;14.30;99.90;;;;;;5111409;28;20180;-74
2023/05/15 07:37:31;;;;;;;57.35;26.15;;;14.40;99.90;;;;;;5109656;28;20182;-76
2023/05/15 07:39:57;;;;;;;55.28;28.15;;;14.80;99.90;;;;;;5114118;28;20557;-75
2023/05/15 07:42:24;;;;;;;48.42;24.63;;;14.90;99.90;;;;;;5097114;28;20267;-75
2023/05/15 07:44:49;;;;;;;51.03;26.85;;;14.90;99.90;;;;;;5108944;28;20537;-74
2023/05/15 07:47:16;;;;;;;54.08;25.45;;;14.80;99.90;;;;;;5101886;28;20229;-76
2023/05/15 07:49:41;;;;;;;55.30;27.83;;;15.00;99.90;;;;;;5081724;28;20191;-75
2023/05/15 07:52:07;;;;;;;56.72;26.85;;;15.20;99.90;;;;;;5115955;28;20540;-75
2023/05/15 07:54:33;;;;;;;48.53;25.50;;;15.40;99.90;;;;;;5115440;28;20172;-75
2023/05/15 07:56:58;;;;;;;46.38;24.65;;;15.30;99.90;;;;;;5115824;28;20191;-74
2023/05/15 07:59:24;;;;;;;57.15;26.77;;;15.40;99.90;;;;;;5080789;28;20621;-76
2023/05/15 08:01:50;;;;;;;48.15;23.52;;;15.30;99.90;;;;;;5097371;28;20187;-77
2023/05/15 08:04:16;;;;;;;52.30;26.35;;;15.40;99.90;;;;;;5093782;28;20184;-74
2023/05/15 08:06:41;;;;;;;52.05;25.35;;;15.60;99.90;;;;;;5115240;28;20217;-75
2023/05/15 08:09:08;;;;;;;52.53;26.30;;;15.80;99.90;;;;;;5115619;28;20176;-77
2023/05/15 08:11:34;;;;;;;56.70;27.73;;;15.60;99.90;;;;;;5115442;28;20187;-74
2023/05/15 08:14:00;;;;;;;54.22;25.83;;;15.30;99.90;;;;;;5115976;28;20187;-77
2023/05/15 08:16:25;;;;;;;48.55;24.42;;;15.30;99.90;;;;;;5115309;28;20180;-74
2023/05/15 08:18:54;;;;;;;55.83;27.27;;;15.50;99.90;;;;;;5115555;28;20227;-74
2023/05/15 08:21:20;;;;;;;50.78;25.23;;;15.50;99.90;;;;;;5114947;28;20212;-76
2023/05/15 08:23:45;;;;;;;57.15;25.30;;;15.60;99.90;;;;;;5101084;28;20211;-75
2023/05/15 08:26:11;;;;;;;52.72;26.20;;;15.80;99.90;;;;;;5097406;28;20305;-77
2023/05/15 08:28:37;;;;;;;51.47;25.92;;;15.70;99.90;;;;;;5093657;28;20538;-77
2023/05/15 08:31:02;;;;;;;48.28;25.23;;;15.90;99.90;;;;;;5087662;28;20187;-76
2023/05/15 08:33:28;;;;;;;51.70;25.25;;;15.70;99.90;;;;;;5104781;28;20180;-74
2023/05/15 08:35:53;;;;;;;50.08;25.65;;;15.80;99.90;;;;;;5089356;28;20184;-74
2023/05/15 08:38:19;;;;;;;49.70;24.80;;;15.90;99.90;;;;;;5083484;28;20180;-75
2023/05/15 08:40:48;;;;;;;53.95;25.08;;;16.10;99.90;;;;;;5110675;28;20216;-75
2023/05/15 08:43:16;;;;;;;51.28;26.08;;;16.30;99.90;;;;;;5115106;28;20202;-74
2023/05/15 08:45:42;;;;;;;50.83;22.63;;;16.70;99.90;;;;;;5114178;28;20180;-76
2023/05/15 08:48:15;;;;;;;50.95;24.08;;;16.70;99.90;;;;;;5090287;28;20281;-74
2023/05/15 08:50:42;;;;;;;46.10;23.77;;;16.80;99.90;;;;;;5096502;28;20586;-75
2023/05/15 08:53:09;;;;;;;43.08;23.40;;;17.40;99.90;;;;;;5095597;28;20641;-75
2023/05/15 08:55:35;;;;;;;47.17;22.65;;;17.90;99.90;;;;;;5079841;28;20241;-74
2023/05/15 08:58:01;;;;;;;47.17;23.92;;;18.20;99.90;;;;;;5099824;28;20641;-75
2023/05/15 09:00:28;;;;;;;43.20;23.45;;;18.40;99.90;;;;;;5094432;28;20249;-76
2023/05/15 09:02:54;;;;;;;45.85;21.05;;;17.90;99.90;;;;;;5112578;28;20204;-74
2023/05/15 09:05:20;;;;;;;42.00;21.95;;;17.90;99.90;;;;;;5093115;28;20211;-76
2023/05/15 09:07:46;;;;;;;44.00;23.23;;;18.40;99.90;;;;;;5114427;28;20180;-76
2023/05/15 09:10:12;;;;;;;48.92;24.42;;;18.70;99.90;;;;;;5104033;28;20180;-77
2023/05/15 09:12:43;;;;;;;40.47;21.70;;;18.80;99.90;;;;;;5113838;28;20668;-76
2023/05/15 09:15:16;;;;;;;41.92;21.63;;;18.90;99.90;;;;;;5099866;28;20625;-76
2023/05/15 09:17:43;;;;;;;42.92;22.05;;;19.20;99.90;;;;;;5113558;28;20183;-74
2023/05/15 09:20:28;;;;;;;49.35;21.65;;;19.50;99.90;;;;;;5100032;28;20204;-76
2023/05/15 09:22:55;;;;;;;43.90;22.05;;;19.80;99.90;;;;;;5101511;28;20263;-75
2023/05/15 09:25:36;;;;;;;37.95;21.42;;;20.10;99.90;;;;;;5110645;28;20184;-74
2023/05/15 09:28:02;;;;;;;45.63;21.73;;;20.40;99.90;;;;;;5114061;28;20180;-74
2023/05/15 09:30:29;;;;;;;41.28;22.48;;;20.90;99.90;;;;;;5100849;28;20228;-74
2023/05/15 09:32:59;;;;;;;42.17;21.60;;;20.80;99.90;;;;;;5102785;28;20206;-76
2023/05/15 09:35:34;;;;;;;39.33;21.45;;;20.50;99.90;;;;;;5111551;28;20211;-77
2023/05/15 09:38:01;;;;;;;38.47;22.48;;;20.50;99.90;;;;;;5112566;28;20179;-77
2023/05/15 09:40:31;;;;;;;36.92;20.48;;;20.40;99.90;;;;;;5093621;28;20212;-75
2023/05/15 09:42:57;;;;;;;36.55;20.33;;;20.30;99.90;;;;;;5111857;28;20183;-75
2023/05/15 09:45:28;;;;;;;36.35;21.00;;;20.10;99.90;;;;;;5113711;28;20176;-75
2023/05/15 09:47:56;;;;;;;37.60;20.92;;;20.30;99.90;;;;;;5111209;28;20168;-75
2023/05/15 09:50:23;;;;;;;39.30;22.15;;;20.40;99.90;;;;;;5102924;28;20200;-74
2023/05/15 09:52:50;;;;;;;40.55;22.70;;;20.50;99.90;;;;;;5113751;28;20202;-75
2023/05/15 09:55:18;;;;;;;37.78;20.52;;;20.60;99.90;;;;;;5086350;28;20536;-75
2023/05/15 09:58:02;;;;;;;39.92;20.65;;;20.50;99.90;;;;;;5108565;28;20176;-76
2023/05/15 10:00:29;;;;;;;38.47;20.48;;;20.30;99.90;;;;;;5103257;28;20208;-77
2023/05/15 10:02:57;;;;;;;42.33;21.60;;;20.60;99.90;;;;;;5107016;28;20325;-76
2023/05/15 10:05:26;;;;;;;38.97;21.02;;;20.50;99.90;;;;;;5102192;28;20176;-76
2023/05/15 10:07:56;;;;;;;37.53;20.30;;;20.40;99.90;;;;;;5113186;28;20191;-76
2023/05/15 10:10:22;;;;;;;39.97;21.45;;;20.50;99.90;;;;;;5095307;28;20176;-76
2023/05/15 10:12:51;;;;;;;40.75;23.15;;;20.40;99.90;;;;;;5099792;28;20192;-77
2023/05/15 10:15:17;;;;;;;41.90;23.08;;;20.00;99.90;;;;;;5107137;28;20180;-75
2023/05/15 10:17:46;;;;;;;41.25;21.30;;;19.70;99.90;;;;;;5109778;28;20188;-75
2023/05/15 10:20:13;;;;;;;43.35;22.23;;;19.80;99.90;;;;;;5108160;28;20691;-75
2023/05/15 10:22:44;;;;;;;43.30;22.20;;;19.90;99.90;;;;;;5112315;28;20241;-76
2023/05/15 10:25:27;;;;;;;37.50;20.98;;;19.70;99.90;;;;;;5112889;28;20172;-76
2023/05/15 10:27:54;;;;;;;42.08;22.23;;;19.30;99.90;;;;;;5113336;28;20184;-76
2023/05/15 10:30:21;;;;;;;46.08;22.15;;;19.20;99.90;;;;;;5105802;28;20187;-75
2023/05/15 10:32:49;;;;;;;40.67;21.70;;;19.20;99.90;;;;;;5113230;28;20265;-74
2023/05/15 10:35:15;;;;;;;41.78;20.13;;;19.10;99.90;;;;;;5104785;28;20204;-75
2023/05/15 10:37:42;;;;;;;36.15;20.17;;;18.90;99.90;;;;;;5061423;28;20505;-74
2023/05/15 10:40:09;;;;;;;36.25;20.42;;;18.60;99.90;;;;;;5112309;28;20659;-77
2023/05/15 10:42:44;;;;;;;35.65;18.83;;;18.60;99.90;;;;;;5077521;28;20177;-73
2023/05/15 10:45:10;;;;;;;39.10;20.27;;;18.90;99.90;;;;;;5111988;28;20210;-73
2023/05/15 10:47:38;;;;;;;44.05;21.48;;;19.00;99.90;;;;;;5110707;28;20554;-76
2023/05/15 10:50:05;;;;;;;44.30;21.15;;;18.90;99.90;;;;;;5101053;28;20176;-76
2023/05/15 10:52:35;;;;;;;49.13;21.02;;;18.90;99.90;;;;;;5098981;28;20202;-74
2023/05/15 10:55:04;;;;;;;40.30;20.75;;;18.60;99.90;;;;;;5100567;28;20199;-75
2023/05/15 10:57:30;;;;;;;42.40;19.95;;;18.90;99.90;;;;;;5112212;28;20184;-73
2023/05/15 10:59:56;;;;;;;46.92;21.58;;;19.00;99.90;;;;;;5107708;28;20282;-74
2023/05/15 11:02:30;;;;;;;45.00;21.50;;;19.00;99.90;;;;;;5112599;28;20649;-74
2023/05/15 11:05:00;;;;;;;54.13;22.33;;;18.90;99.90;;;;;;5108967;28;20175;-74
2023/05/15 11:07:27;;;;;;;50.42;24.25;;;19.00;99.90;;;;;;5095026;28;20180;-75
2023/05/15 11:09:54;;;;;;;54.20;24.45;;;18.90;99.90;;;;;;5110632;28;20213;-75
2023/05/15 11:12:20;;;;;;;46.10;23.55;;;18.90;99.90;;;;;;5092898;28;20188;-74
2023/05/15 11:14:55;;;;;;;65.35;26.98;;;18.70;99.90;;;;;;5097644;28;20901;-76
2023/05/15 11:17:25;;;;;;;58.90;25.67;;;18.30;99.90;;;;;;5107949;28;20665;-75
2023/05/15 11:19:51;;;;;;;73.18;31.02;;;18.20;99.90;;;;;;5111822;28;20676;-77
2023/05/15 11:22:37;;;;;;;72.47;29.40;;;18.00;99.90;;;;;;5116101;28;20183;-75
2023/05/15 11:25:13;;;;;;;69.35;30.38;;;17.90;99.90;;;;;;5116074;28;20586;-76
2023/05/15 11:27:40;;;;;;;82.75;33.67;;;17.80;99.90;;;;;;5089096;28;20709;-74
2023/05/15 11:30:14;;;;;;;92.68;34.85;;;17.90;99.90;;;;;;5115618;28;20641;-73
2023/05/15 11:32:47;;;;;;;85.05;32.53;;;18.10;99.90;;;;;;5111481;28;20176;-74
2023/05/15 11:35:33;;;;;;;88.53;32.08;;;18.40;99.90;;;;;;5114430;28;20180;-75
2023/05/15 11:38:02;;;;;;;88.10;33.75;;;18.60;99.90;;;;;;5082143;28;20265;-73
2023/05/15 11:40:42;;;;;;;84.32;33.72;;;19.10;99.90;;;;;;5112301;28;20264;-76
2023/05/15 11:43:23;;;;;;;75.35;31.73;;;19.20;99.90;;;;;;5114773;28;20220;-76
2023/05/15 11:45:54;;;;;;;68.50;30.15;;;19.40;99.90;;;;;;5097960;28;20184;-73
2023/05/15 11:48:22;;;;;;;83.10;31.48;;;19.40;99.90;;;;;;5107978;28;20184;-73
2023/05/15 11:50:48;;;;;;;76.55;32.10;;;19.30;99.90;;;;;;5084923;28;20180;-73
2023/05/15 11:53:15;;;;;;;80.07;30.58;;;18.80;99.90;;;;;;5112147;28;20518;-76
2023/05/15 11:55:42;;;;;;;73.32;33.75;;;18.20;99.90;;;;;;5115614;28;20918;-74
2023/05/15 11:58:15;;;;;;;70.85;30.10;;;18.00;99.90;;;;;;5115788;28;20636;-74
2023/05/15 12:00:48;;;;;;;77.50;32.38;;;17.60;99.90;;;;;;5097692;28;20206;-76
2023/05/15 12:03:19;;;;;;;74.88;30.13;;;17.50;99.90;;;;;;5116051;28;20689;-77
2023/05/15 12:05:45;;;;;;;71.28;29.10;;;17.40;99.90;;;;;;5116897;28;20184;-77
2023/05/15 12:08:11;;;;;;;66.22;31.63;;;17.10;99.90;;;;;;5112976;28;20240;-77
2023/05/15 12:10:44;;;;;;;79.45;33.22;;;17.10;99.90;;;;;;5108142;28;20581;-74
2023/05/15 12:13:11;;;;;;;77.78;33.22;;;17.00;99.90;;;;;;5113220;28;20209;-74
2023/05/15 12:15:38;;;;;;;74.25;30.73;;;16.90;99.90;;;;;;5112056;28;20180;-76
2023/05/15 12:18:06;;;;;;;65.07;29.25;;;17.00;99.90;;;;;;5114485;28;20216;-73
2023/05/15 12:20:33;;;;;;;75.97;31.10;;;16.80;99.90;;;;;;5097244;28;20542;-73
2023/05/15 12:23:00;;;;;;;74.03;27.92;;;16.70;99.90;;;;;;5108310;28;20199;-73
2023/05/15 12:25:26;;;;;;;82.72;30.23;;;16.50;99.90;;;;;;5096216;28;20191;-73